Time;durP1;ratioP1;P1;durP2;ratioP2;P2;SDS_P1;SDS_P2;PMS_P1;PMS_P2;Temp;Humidity;BMP_temperature;BMP_pressure;BME280_temperature;BME280_humidity;BME280_pressure;Samples;Min_cycle;Max_cycle;Signal;HPM_P1;HPM_P2
2023/10/08 00:03:08;;;;;;;6.97;3.40;;;19.10;99.90;;;;;;5017032;28;20405;-80
2023/10/08 00:05:37;;;;;;;3.90;3.10;;;19.00;99.90;;;;;;4999637;28;20400;-80
2023/10/08 00:08:04;;;;;;;9.13;3.50;;;19.00;99.90;;;;;;5030544;28;20776;-79
2023/10/08 00:10:39;;;;;;;8.03;3.83;;;18.90;99.90;;;;;;5035956;28;20425;-79
2023/10/08 00:13:08;;;;;;;5.20;3.03;;;18.80;99.90;;;;;;5036225;28;20397;-79
2023/10/08 00:15:37;;;;;;;5.50;3.70;;;18.80;99.90;;;;;;5015342;28;20424;-80
2023/10/08 00:18:04;;;;;;;7.77;4.50;;;18.70;99.90;;;;;;5015694;28;20789;-80
2023/10/08 00:20:54;;;;;;;6.93;3.20;;;18.70;99.90;;;;;;4999661;28;20530;-80
2023/10/08 00:23:21;;;;;;;6.17;3.73;;;18.60;99.90;;;;;;5016350;28;20453;-80
2023/10/08 00:25:47;;;;;;;8.77;4.03;;;18.60;99.90;;;;;;5021267;28;20475;-80
2023/10/08 00:28:17;;;;;;;9.03;3.10;;;18.50;99.90;;;;;;5035616;28;20410;-80
2023/10/08 00:30:43;;;;;;;7.87;3.60;;;18.40;99.90;;;;;;5019277;28;20403;-80
2023/10/08 00:33:09;;;;;;;6.40;3.50;;;18.40;99.90;;;;;;5035904;28;20425;-80
2023/10/08 00:35:39;;;;;;;11.07;3.53;;;18.30;99.90;;;;;;5032061;28;20438;-79
2023/10/08 00:38:09;;;;;;;4.93;3.50;;;18.20;99.90;;;;;;5015974;28;20397;-80
2023/10/08 00:40:39;;;;;;;8.60;3.30;;;18.30;99.90;;;;;;5032170;28;20469;-79
2023/10/08 00:43:09;;;;;;;5.23;3.17;;;18.30;99.90;;;;;;5016853;28;20368;-79
2023/10/08 00:45:43;;;;;;;5.33;3.33;;;18.30;99.90;;;;;;5035108;28;20477;-79
2023/10/08 00:48:17;;;;;;;8.27;4.07;;;18.30;99.90;;;;;;5035345;28;20421;-80
2023/10/08 00:50:43;;;;;;;4.53;3.10;;;18.30;99.90;;;;;;5036518;28;20383;-80
2023/10/08 00:53:23;;;;;;;6.60;3.20;;;18.30;99.90;;;;;;5038234;28;20402;-80
2023/10/08 00:55:59;;;;;;;5.43;3.13;;;18.30;99.90;;;;;;5037073;28;20471;-79
2023/10/08 00:58:26;;;;;;;7.00;3.20;;;18.30;99.90;;;;;;5034888;28;20468;-80
2023/10/08 01:00:59;;;;;;;7.93;3.60;;;18.30;99.90;;;;;;5035140;28;20465;-80
2023/10/08 01:03:26;;;;;;;8.33;3.50;;;18.30;99.90;;;;;;5035649;28;20433;-80
2023/10/08 01:05:54;;;;;;;5.03;3.70;;;18.30;99.90;;;;;;5036262;28;20421;-80
2023/10/08 01:08:34;;;;;;;7.23;3.30;;;18.30;99.90;;;;;;5051537;28;20421;-80
2023/10/08 01:11:15;;;;;;;8.17;3.93;;;18.20;99.90;;;;;;5025033;28;20406;-79
2023/10/08 01:13:45;;;;;;;7.40;3.20;;;18.20;99.90;;;;;;5024675;28;20397;-80
2023/10/08 01:16:11;;;;;;;5.63;3.27;;;18.20;99.90;;;;;;4999417;28;20412;-80
2023/10/08 01:18:37;;;;;;;8.43;3.30;;;18.10;99.90;;;;;;5015135;28;20407;-80
2023/10/08 01:21:11;;;;;;;10.93;4.33;;;18.10;99.90;;;;;;5016477;28;20290;-80
2023/10/08 01:23:38;;;;;;;5.40;3.00;;;18.10;99.90;;;;;;5015263;28;20487;-80
2023/10/08 01:26:14;;;;;;;9.73;3.50;;;18.00;99.90;;;;;;5015494;28;20406;-80
2023/10/08 01:28:42;;;;;;;4.40;3.17;;;17.90;99.90;;;;;;5039569;28;20391;-80
2023/10/08 01:31:12;;;;;;;4.33;3.20;;;17.90;99.90;;;;;;5039695;28;20424;-80
2023/10/08 01:33:38;;;;;;;7.00;4.07;;;17.80;99.90;;;;;;5010427;28;20796;-80
2023/10/08 01:36:04;;;;;;;6.13;3.57;;;17.80;99.90;;;;;;5028774;28;20414;-80
2023/10/08 01:38:33;;;;;;;7.77;2.97;;;17.80;99.90;;;;;;5034294;28;20409;-81
2023/10/08 01:41:04;;;;;;;7.20;3.30;;;17.70;99.90;;;;;;5035754;28;20468;-80
2023/10/08 01:43:29;;;;;;;4.80;3.20;;;17.60;99.90;;;;;;5034458;28;20425;-80
2023/10/08 01:45:55;;;;;;;5.90;3.40;;;17.60;99.90;;;;;;5017680;28;20464;-80
2023/10/08 01:48:27;;;;;;;5.57;3.83;;;17.60;99.90;;;;;;5034206;28;20265;-80
2023/10/08 01:51:01;;;;;;;7.73;3.80;;;17.60;99.90;;;;;;5033803;28;20823;-80
2023/10/08 01:53:28;;;;;;;5.80;3.70;;;17.60;99.90;;;;;;5011393;28;20918;-80
2023/10/08 01:55:54;;;;;;;4.40;3.10;;;17.50;99.90;;;;;;5015911;28;20395;-80
2023/10/08 01:58:22;;;;;;;5.93;3.23;;;17.50;99.90;;;;;;4998328;28;20411;-80
2023/10/08 02:00:49;;;;;;;3.33;2.97;;;17.40;99.90;;;;;;5014281;28;20461;-80
2023/10/08 02:03:17;;;;;;;6.70;3.07;;;17.30;99.90;;;;;;5015738;28;20426;-80
2023/10/08 02:05:44;;;;;;;7.93;3.53;;;17.30;99.90;;;;;;5021943;28;20807;-80
2023/10/08 02:08:14;;;;;;;7.47;4.60;;;17.20;99.90;;;;;;5035136;28;20376;-80
2023/10/08 02:10:42;;;;;;;7.20;3.80;;;17.20;99.90;;;;;;5034547;28;20506;-80
2023/10/08 02:13:09;;;;;;;4.27;2.87;;;17.00;99.90;;;;;;5024909;28;20421;-80
2023/10/08 02:15:44;;;;;;;7.37;4.80;;;17.00;99.90;;;;;;5030953;28;20455;-80
2023/10/08 02:18:09;;;;;;;9.17;3.73;;;16.90;99.90;;;;;;5035192;28;20404;-79
2023/10/08 02:20:35;;;;;;;5.73;3.63;;;16.80;99.90;;;;;;5034831;28;20540;-80
2023/10/08 02:23:00;;;;;;;7.23;3.50;;;16.70;99.90;;;;;;5019569;28;20653;-80
2023/10/08 02:25:27;;;;;;;7.20;3.57;;;16.60;99.90;;;;;;5017149;28;20205;-80
2023/10/08 02:27:53;;;;;;;8.53;3.77;;;16.40;99.90;;;;;;5034666;28;20265;-80
2023/10/08 02:30:18;;;;;;;6.60;3.70;;;16.30;99.90;;;;;;5017307;28;21242;-80
2023/10/08 02:32:46;;;;;;;5.10;3.27;;;16.20;99.90;;;;;;5034905;28;20256;-80
2023/10/08 02:35:12;;;;;;;6.57;3.70;;;16.10;99.90;;;;;;5034944;28;20193;-80
2023/10/08 02:37:45;;;;;;;8.30;3.73;;;16.00;99.90;;;;;;5035229;28;20405;-80
2023/10/08 02:40:26;;;;;;;7.07;3.77;;;16.00;99.90;;;;;;5033415;28;20471;-80
2023/10/08 02:42:58;;;;;;;9.00;4.20;;;16.00;99.90;;;;;;5033659;28;20416;-80
2023/10/08 02:45:25;;;;;;;7.40;3.50;;;15.90;99.90;;;;;;5027403;28;20472;-79
2023/10/08 02:47:52;;;;;;;6.87;4.20;;;16.00;99.90;;;;;;5030460;28;20476;-80
2023/10/08 02:50:22;;;;;;;7.90;4.00;;;15.90;99.90;;;;;;5013481;28;20453;-80
2023/10/08 02:52:49;;;;;;;8.10;3.50;;;16.20;99.90;;;;;;5021111;28;20808;-80
2023/10/08 02:55:34;;;;;;;5.67;3.63;;;16.30;99.90;;;;;;5031322;28;20567;-80
2023/10/08 02:58:02;;;;;;;8.00;4.00;;;16.30;99.90;;;;;;5033968;28;20765;-80
2023/10/08 03:00:34;;;;;;;5.17;3.53;;;16.40;99.90;;;;;;5034651;28;20802;-79
2023/10/08 03:03:02;;;;;;;5.83;3.60;;;16.30;99.90;;;;;;5036609;28;20396;-79
2023/10/08 03:05:35;;;;;;;5.53;3.80;;;16.30;99.90;;;;;;5033401;28;20432;-80
2023/10/08 03:08:02;;;;;;;9.93;4.70;;;16.40;99.90;;;;;;5002923;28;20406;-80
2023/10/08 03:10:33;;;;;;;5.57;3.33;;;16.50;99.90;;;;;;5017806;28;20828;-80
2023/10/08 03:13:05;;;;;;;7.80;3.33;;;16.60;99.90;;;;;;5017589;28;20520;-79
2023/10/08 03:15:38;;;;;;;4.87;3.37;;;16.60;99.90;;;;;;5002748;28;20437;-79
2023/10/08 03:18:14;;;;;;;8.13;3.43;;;16.60;99.90;;;;;;5018280;28;20373;-80
2023/10/08 03:20:45;;;;;;;8.67;3.83;;;16.60;99.90;;;;;;5017956;28;20453;-80
2023/10/08 03:23:22;;;;;;;5.90;4.33;;;16.60;99.90;;;;;;5018891;28;20443;-79
2023/10/08 03:25:56;;;;;;;7.73;4.07;;;16.60;99.90;;;;;;5017459;28;20520;-80
2023/10/08 03:28:24;;;;;;;7.20;3.80;;;16.60;99.90;;;;;;5018423;28;21156;-79
2023/10/08 03:30:51;;;;;;;5.80;2.97;;;16.60;99.90;;;;;;5017606;28;20429;-80
2023/10/08 03:33:23;;;;;;;8.57;3.70;;;16.60;99.90;;;;;;5018507;28;20395;-80
2023/10/08 03:35:52;;;;;;;11.20;4.20;;;16.60;99.90;;;;;;5024940;28;20559;-80
2023/10/08 03:38:28;;;;;;;7.73;4.20;;;16.60;99.90;;;;;;5037054;28;20432;-80
2023/10/08 03:41:09;;;;;;;8.07;4.13;;;16.50;99.90;;;;;;5039066;28;20448;-79
2023/10/08 03:43:42;;;;;;;9.23;4.00;;;16.50;99.90;;;;;;5042086;28;20412;-79
2023/10/08 03:46:14;;;;;;;14.80;4.07;;;16.50;99.90;;;;;;5028929;28;20469;-79
2023/10/08 03:48:44;;;;;;;7.70;3.60;;;16.40;99.90;;;;;;5018026;28;20402;-80
2023/10/08 03:51:11;;;;;;;13.10;3.93;;;16.30;99.90;;;;;;5017961;28;20446;-80
2023/10/08 03:53:54;;;;;;;8.50;3.70;;;16.20;99.90;;;;;;5017688;28;20417;-80
2023/10/08 03:56:20;;;;;;;5.83;3.50;;;16.20;99.90;;;;;;5016849;28;20426;-79
2023/10/08 03:58:46;;;;;;;7.23;3.93;;;16.20;99.90;;;;;;5016747;28;20396;-79
2023/10/08 04:01:18;;;;;;;5.87;3.63;;;16.10;99.90;;;;;;5018018;28;20609;-79
2023/10/08 04:11:36;;;;;;;7.73;3.83;;;16.00;99.90;;;;;;5018042;28;20504;-79
2023/10/08 04:14:04;;;;;;;5.83;3.27;;;15.90;99.90;;;;;;4983245;28;20476;-80
2023/10/08 04:16:37;;;;;;;5.90;3.70;;;15.80;99.90;;;;;;5024346;28;20418;-79
2023/10/08 04:19:04;;;;;;;7.63;4.20;;;15.80;99.90;;;;;;5037115;28;20917;-79
2023/10/08 04:21:29;;;;;;;6.80;4.30;;;15.70;99.90;;;;;;5019741;28;20507;-79
2023/10/08 04:23:57;;;;;;;8.10;4.50;;;15.80;99.90;;;;;;5021185;28;20429;-79
2023/10/08 04:26:23;;;;;;;7.73;3.57;;;15.70;99.90;;;;;;5017707;28;20187;-79
2023/10/08 04:28:54;;;;;;;11.20;4.13;;;15.60;99.90;;;;;;5020295;28;20425;-79
2023/10/08 04:31:24;;;;;;;8.10;4.10;;;15.60;99.90;;;;;;5037011;28;20427;-79
2023/10/08 04:33:50;;;;;;;6.50;3.80;;;15.60;99.90;;;;;;5023119;28;20418;-79
2023/10/08 04:36:19;;;;;;;7.30;3.87;;;15.50;99.90;;;;;;5036192;28;20827;-79
2023/10/08 04:38:47;;;;;;;6.40;3.77;;;15.50;99.90;;;;;;5054839;28;20926;-79
2023/10/08 04:41:17;;;;;;;10.47;3.60;;;15.60;99.90;;;;;;5055823;28;20479;-79
2023/10/08 04:43:43;;;;;;;8.33;4.33;;;15.50;99.90;;;;;;5041887;28;20457;-80
2023/10/08 04:46:19;;;;;;;8.33;4.13;;;15.40;99.90;;;;;;5035481;28;20464;-79
2023/10/08 04:48:51;;;;;;;9.20;3.93;;;15.40;99.90;;;;;;5036924;28;20162;-79
2023/10/08 04:51:17;;;;;;;8.10;4.40;;;15.40;99.90;;;;;;5035924;28;20428;-79
2023/10/08 04:53:45;;;;;;;8.93;4.17;;;15.40;99.90;;;;;;5034968;28;20391;-79
2023/10/08 04:56:18;;;;;;;5.57;4.40;;;15.30;99.90;;;;;;5027530;28;20417;-79
2023/10/08 04:58:47;;;;;;;11.40;4.47;;;15.20;99.90;;;;;;5016853;28;20853;-79
2023/10/08 05:01:17;;;;;;;8.37;4.40;;;15.10;99.90;;;;;;5025569;28;20575;-79
2023/10/08 05:04:06;;;;;;;10.10;4.80;;;15.00;99.90;;;;;;5019033;28;20428;-79
2023/10/08 05:09:10;;;;;;;6.53;3.90;;;14.90;99.90;;;;;;5016879;28;21266;-79
2023/10/08 05:12:08;;;;;;;5.70;3.70;;;14.90;99.90;;;;;;5017399;28;20376;-79
2023/10/08 05:17:21;;;;;;;7.27;4.03;;;14.70;99.90;;;;;;5036207;28;20503;-79
2023/10/08 05:57:14;;;;;;;8.60;4.57;;;14.10;99.90;;;;;;5023517;28;20458;-81
2023/10/08 06:05:20;;;;;;;7.77;4.80;;;14.00;99.90;;;;;;5034632;28;20429;-81
2023/10/08 06:13:10;;;;;;;14.20;4.83;;;14.00;99.90;;;;;;5033258;28;20400;-81
2023/10/08 06:15:48;;;;;;;7.07;4.00;;;14.00;99.90;;;;;;5054384;28;20446;-81
2023/10/08 06:18:25;;;;;;;11.57;4.47;;;13.90;99.90;;;;;;5054038;28;20411;-81
2023/10/08 06:20:55;;;;;;;10.70;5.67;;;13.90;99.90;;;;;;5045023;28;20551;-81
2023/10/08 06:23:25;;;;;;;11.23;5.00;;;13.90;99.90;;;;;;5050194;28;20433;-81
2023/10/08 06:26:05;;;;;;;11.77;5.17;;;13.90;99.90;;;;;;5017595;28;20901;-81
2023/10/08 06:28:34;;;;;;;11.50;4.97;;;14.00;99.90;;;;;;5035077;28;20432;-81
2023/10/08 06:31:01;;;;;;;8.57;4.80;;;13.90;99.90;;;;;;5034472;28;20504;-81
2023/10/08 06:33:33;;;;;;;9.20;4.40;;;14.00;99.90;;;;;;5033761;28;20811;-81
2023/10/08 06:36:02;;;;;;;8.27;4.97;;;14.00;99.90;;;;;;5033519;28;20544;-81
2023/10/08 06:38:38;;;;;;;8.87;5.00;;;14.10;99.90;;;;;;5033585;28;20433;-81
2023/10/08 06:43:46;;;;;;;8.10;4.50;;;14.10;99.90;;;;;;5034827;28;20817;-81
2023/10/08 06:46:12;;;;;;;9.23;4.90;;;14.20;99.90;;;;;;5033673;28;20476;-82
2023/10/08 06:48:42;;;;;;;9.90;4.63;;;14.30;99.90;;;;;;5034778;28;20734;-82
2023/10/08 06:51:12;;;;;;;9.13;3.97;;;14.50;99.90;;;;;;5016756;28;20277;-82
2023/10/08 06:53:44;;;;;;;7.60;4.50;;;14.50;99.90;;;;;;5033538;28;20397;-82
2023/10/08 06:56:15;;;;;;;7.57;4.23;;;14.60;99.90;;;;;;5033871;28;20417;-82
2023/10/08 06:58:53;;;;;;;8.63;5.00;;;14.70;99.90;;;;;;5034865;28;20852;-82
2023/10/08 07:01:24;;;;;;;8.40;4.80;;;14.70;99.90;;;;;;5033373;28;20464;-82
2023/10/08 07:04:03;;;;;;;6.33;4.60;;;14.80;99.90;;;;;;5049515;28;20927;-82
2023/10/08 07:06:31;;;;;;;12.50;4.70;;;14.80;99.90;;;;;;5033350;28;20417;-82
2023/10/08 07:09:05;;;;;;;9.87;4.80;;;14.90;99.90;;;;;;5034420;28;20883;-82
2023/10/08 07:11:34;;;;;;;9.50;4.57;;;15.00;99.90;;;;;;5033524;28;20417;-82
2023/10/08 07:14:01;;;;;;;10.60;5.10;;;15.20;99.90;;;;;;5049220;28;20941;-82
2023/10/08 07:16:28;;;;;;;7.30;4.37;;;15.20;99.90;;;;;;5016675;28;20420;-82
2023/10/08 07:19:01;;;;;;;6.47;4.50;;;15.30;99.90;;;;;;5032507;28;20504;-82
2023/10/08 07:21:38;;;;;;;8.47;4.60;;;15.30;99.90;;;;;;5025982;28;21000;-82
2023/10/08 07:24:09;;;;;;;8.50;4.00;;;15.30;99.90;;;;;;4999173;28;20425;-82
2023/10/08 07:26:39;;;;;;;8.00;4.53;;;15.40;99.90;;;;;;5029202;28;20504;-82
2023/10/08 07:29:08;;;;;;;6.67;4.27;;;15.50;99.90;;;;;;5014103;28;20417;-82
2023/10/08 07:31:36;;;;;;;9.87;4.60;;;15.60;99.90;;;;;;5029996;28;20434;-81
2023/10/08 07:34:36;;;;;;;8.77;4.13;;;15.70;99.90;;;;;;5029595;28;20437;-82
2023/10/08 07:36:55;;;;;;;7.90;4.40;;;15.80;99.90;;;;;;5024290;28;20430;-82
2023/10/08 07:39:33;;;;;;;8.70;4.23;;;16.00;99.90;;;;;;5014412;28;20392;-82
2023/10/08 07:42:05;;;;;;;11.27;4.67;;;16.10;99.90;;;;;;5014015;28;20878;-82
2023/10/08 07:44:31;;;;;;;9.00;4.27;;;16.10;99.90;;;;;;5014441;28;20421;-82
2023/10/08 07:46:57;;;;;;;10.70;4.90;;;16.20;99.90;;;;;;5014253;28;20474;-82
2023/10/08 07:49:24;;;;;;;8.07;4.40;;;16.20;99.90;;;;;;5015008;28;20796;-82
2023/10/08 07:51:52;;;;;;;7.73;4.10;;;16.20;99.90;;;;;;5034067;28;20407;-82
2023/10/08 07:54:23;;;;;;;9.30;4.03;;;16.30;99.90;;;;;;5023376;28;20921;-82
2023/10/08 07:57:08;;;;;;;10.10;4.90;;;16.40;99.90;;;;;;5017588;28;20437;-82
2023/10/08 07:59:38;;;;;;;9.80;4.67;;;16.40;99.90;;;;;;5021051;28;20424;-82
2023/10/08 08:02:09;;;;;;;8.53;4.83;;;16.60;99.90;;;;;;5035942;28;20428;-82
2023/10/08 08:04:36;;;;;;;8.63;4.00;;;16.90;99.90;;;;;;5020660;28;20400;-82
2023/10/08 08:07:04;;;;;;;8.20;3.90;;;16.90;99.90;;;;;;5035889;28;20479;-82
2023/10/08 08:09:30;;;;;;;10.70;4.30;;;16.80;99.90;;;;;;5042043;28;20443;-82
2023/10/08 08:11:57;;;;;;;6.10;4.00;;;16.90;99.90;;;;;;5044783;28;20405;-81
2023/10/08 08:14:24;;;;;;;10.03;4.50;;;17.10;99.90;;;;;;5020535;28;20448;-82
2023/10/08 08:16:50;;;;;;;11.20;4.53;;;17.00;99.90;;;;;;5037157;28;20395;-81
2023/10/08 08:19:17;;;;;;;9.10;5.10;;;17.10;99.90;;;;;;5019003;28;20842;-81
2023/10/08 08:21:46;;;;;;;10.40;4.73;;;17.10;99.90;;;;;;5035738;28;20526;-82
2023/10/08 08:24:13;;;;;;;8.27;4.63;;;17.20;99.90;;;;;;5036811;28;20405;-82
2023/10/08 08:27:01;;;;;;;14.00;4.50;;;17.30;99.90;;;;;;5036850;28;20496;-82
2023/10/08 08:29:33;;;;;;;12.30;4.50;;;17.20;99.90;;;;;;5036158;28;20405;-82
2023/10/08 08:31:58;;;;;;;11.00;4.20;;;17.20;99.90;;;;;;5036281;28;20401;-82
2023/10/08 08:34:24;;;;;;;8.03;4.57;;;17.20;99.90;;;;;;5018823;28;20468;-82
2023/10/08 08:36:50;;;;;;;12.53;4.63;;;17.40;99.90;;;;;;5018709;28;20311;-82
2023/10/08 08:39:32;;;;;;;9.00;4.13;;;17.40;99.90;;;;;;5036393;28;20186;-82
2023/10/08 08:42:01;;;;;;;9.50;4.23;;;17.50;99.90;;;;;;5036393;28;20174;-82
2023/10/08 08:44:31;;;;;;;7.37;4.10;;;17.50;99.90;;;;;;5036626;28;20455;-82
2023/10/08 08:47:04;;;;;;;8.53;4.50;;;17.50;99.90;;;;;;5034771;28;20443;-82
2023/10/08 08:49:34;;;;;;;15.63;5.63;;;17.30;99.90;;;;;;5035333;28;20410;-82
2023/10/08 08:52:00;;;;;;;8.60;4.33;;;17.40;99.90;;;;;;5034797;28;20448;-82
2023/10/08 08:54:30;;;;;;;13.20;5.40;;;17.40;99.90;;;;;;5036352;28;20390;-82
2023/10/08 08:57:04;;;;;;;10.30;4.70;;;17.40;99.90;;;;;;5034789;28;20908;-82
2023/10/08 08:59:30;;;;;;;8.33;5.33;;;17.30;99.90;;;;;;5036355;28;20379;-82
2023/10/08 09:02:00;;;;;;;10.40;5.93;;;17.40;99.90;;;;;;5034633;28;20979;-82
2023/10/08 09:04:32;;;;;;;11.27;5.30;;;17.50;99.90;;;;;;5035857;28;20464;-82
2023/10/08 09:07:05;;;;;;;11.50;5.73;;;17.70;99.90;;;;;;5035892;28;20816;-81
2023/10/08 09:09:35;;;;;;;12.00;5.67;;;17.80;99.90;;;;;;5035792;28;20399;-82
2023/10/08 09:12:01;;;;;;;9.57;4.90;;;17.80;99.90;;;;;;5034252;28;20439;-82
2023/10/08 09:14:32;;;;;;;12.50;5.83;;;18.00;99.90;;;;;;5018680;28;20506;-82
2023/10/08 09:16:59;;;;;;;11.43;5.40;;;18.20;99.90;;;;;;5034405;28;20789;-82
2023/10/08 09:19:25;;;;;;;13.17;5.97;;;18.20;99.90;;;;;;5034349;28;20887;-82
2023/10/08 09:22:07;;;;;;;10.10;5.57;;;18.40;99.90;;;;;;5038049;28;20471;-82
2023/10/08 09:24:36;;;;;;;12.10;6.20;;;18.60;99.90;;;;;;5035129;28;20186;-82
2023/10/08 09:27:06;;;;;;;11.30;5.00;;;18.50;99.90;;;;;;5017896;28;20425;-82
2023/10/08 09:29:36;;;;;;;15.73;6.43;;;18.70;99.90;;;;;;5035371;28;20413;-82
2023/10/08 09:32:05;;;;;;;11.97;5.90;;;18.60;99.90;;;;;;5034454;28;20873;-82
2023/10/08 09:34:31;;;;;;;13.30;6.00;;;18.60;99.90;;;;;;5035782;28;20412;-82
2023/10/08 09:37:01;;;;;;;11.63;6.63;;;18.70;99.90;;;;;;5033846;28;20409;-83
2023/10/08 09:39:30;;;;;;;13.30;6.13;;;18.70;99.90;;;;;;5035596;28;20379;-82
2023/10/08 09:41:56;;;;;;;17.33;6.80;;;18.80;99.90;;;;;;5033847;28;20402;-82
2023/10/08 09:44:24;;;;;;;15.40;7.57;;;19.00;99.90;;;;;;5035228;28;20431;-82
2023/10/08 09:47:04;;;;;;;19.97;8.53;;;18.90;99.90;;;;;;5034050;28;20435;-82
2023/10/08 09:49:41;;;;;;;15.87;7.57;;;19.20;99.90;;;;;;5035320;28;20378;-82
2023/10/08 09:52:08;;;;;;;19.23;8.97;;;19.30;99.90;;;;;;5033672;28;20474;-82
2023/10/08 09:54:43;;;;;;;16.40;6.70;;;19.50;99.90;;;;;;5001594;28;20392;-83
2023/10/08 09:57:10;;;;;;;16.23;8.57;;;19.80;99.90;;;;;;5035132;28;20408;-82
2023/10/08 09:59:38;;;;;;;17.37;7.00;;;19.90;99.90;;;;;;5035181;28;20420;-82
2023/10/08 10:02:04;;;;;;;18.63;7.70;;;20.00;99.90;;;;;;5034475;28;20421;-82
2023/10/08 10:04:31;;;;;;;15.27;7.80;;;20.00;99.90;;;;;;5017292;28;20909;-82
2023/10/08 10:06:58;;;;;;;15.03;6.77;;;19.90;99.90;;;;;;5034617;28;20416;-82
2023/10/08 10:09:25;;;;;;;17.60;7.50;;;19.70;99.90;;;;;;5033526;28;20405;-82
2023/10/08 10:11:53;;;;;;;12.90;7.10;;;19.80;99.90;;;;;;5033282;28;20416;-82
2023/10/08 10:14:22;;;;;;;23.47;8.50;;;19.80;99.90;;;;;;5017910;28;20445;-82
2023/10/08 10:17:10;;;;;;;11.43;7.60;;;20.10;99.90;;;;;;5033562;28;20424;-82
2023/10/08 10:19:36;;;;;;;24.33;8.57;;;20.20;99.90;;;;;;5032994;28;20504;-82
2023/10/08 10:22:03;;;;;;;16.77;7.90;;;20.40;99.90;;;;;;5036276;28;20556;-82
2023/10/08 10:24:35;;;;;;;19.70;8.43;;;20.50;99.90;;;;;;5043777;28;20254;-82
2023/10/08 10:27:14;;;;;;;21.33;8.27;;;20.30;99.90;;;;;;5025729;28;20869;-82
2023/10/08 10:29:43;;;;;;;25.17;9.80;;;20.30;99.90;;;;;;5035643;28;20448;-83
2023/10/08 10:32:10;;;;;;;18.10;8.93;;;20.40;99.90;;;;;;5035261;28;20429;-82
2023/10/08 10:34:39;;;;;;;24.50;8.10;;;21.00;99.90;;;;;;5016782;28;20520;-82
2023/10/08 10:37:20;;;;;;;22.07;8.70;;;21.30;99.90;;;;;;5014728;28;20825;-83
2023/10/08 10:39:55;;;;;;;23.57;10.40;;;21.20;99.90;;;;;;5015208;28;20460;-84
2023/10/08 10:42:21;;;;;;;20.60;9.50;;;20.80;99.90;;;;;;5013468;28;20456;-83
2023/10/08 10:44:50;;;;;;;19.57;8.20;;;21.30;99.90;;;;;;5015820;28;20778;-83
2023/10/08 10:49:53;;;;;;;23.63;9.53;;;21.40;99.90;;;;;;5016041;28;20416;-83
2023/10/08 10:52:32;;;;;;;19.53;8.80;;;21.50;99.90;;;;;;5014608;28;20425;-83
2023/10/08 10:57:54;;;;;;;22.70;8.30;;;21.80;99.90;;;;;;5016414;28;20398;-84
2023/10/08 11:03:17;;;;;;;22.43;10.00;;;22.10;99.90;;;;;;5014936;28;20369;-83
2023/10/08 11:05:51;;;;;;;20.73;8.90;;;21.40;99.90;;;;;;5013525;28;20481;-83
2023/10/08 11:08:18;;;;;;;26.50;7.80;;;21.70;99.90;;;;;;5014168;28;20406;-83
2023/10/08 11:11:05;;;;;;;14.20;9.43;;;21.80;99.90;;;;;;5014830;28;20770;-83
2023/10/08 11:13:37;;;;;;;14.97;8.03;;;22.10;99.90;;;;;;5013025;28;20877;-84
2023/10/08 11:16:04;;;;;;;20.23;8.67;;;22.20;99.90;;;;;;5013325;28;20873;-83
2023/10/08 11:18:29;;;;;;;18.03;7.77;;;22.80;99.90;;;;;;4997564;28;20425;-84
2023/10/08 11:21:16;;;;;;;22.23;7.97;;;22.60;99.90;;;;;;5013655;28;20849;-84
2023/10/08 11:23:52;;;;;;;17.17;7.90;;;22.80;99.90;;;;;;5014734;28;20544;-84
2023/10/08 11:26:19;;;;;;;16.03;8.60;;;23.00;99.90;;;;;;5016643;28;20555;-84
2023/10/08 11:28:47;;;;;;;19.33;8.77;;;22.80;99.90;;;;;;5018126;28;20515;-85
2023/10/08 11:31:20;;;;;;;16.10;8.57;;;22.90;99.90;;;;;;5017814;28;20448;-84
2023/10/08 11:33:56;;;;;;;19.53;8.20;;;22.70;99.90;;;;;;5033103;28;20426;-84
2023/10/08 11:36:27;;;;;;;17.00;7.90;;;22.70;99.90;;;;;;5016383;28;20428;-84
2023/10/08 11:39:08;;;;;;;20.90;9.23;;;23.20;99.90;;;;;;5017615;28;20413;-84
2023/10/08 11:41:52;;;;;;;19.97;9.97;;;23.00;99.90;;;;;;5017631;28;20485;-83
2023/10/08 11:44:22;;;;;;;19.13;8.40;;;22.60;99.90;;;;;;5016382;28;20426;-84
2023/10/08 11:46:51;;;;;;;17.73;7.23;;;23.00;99.90;;;;;;5017766;28;20514;-84
2023/10/08 11:49:25;;;;;;;20.00;8.43;;;23.20;99.90;;;;;;5030127;28;20784;-83
2023/10/08 11:51:55;;;;;;;18.90;7.47;;;23.60;99.90;;;;;;5036960;28;20420;-84
2023/10/08 11:54:23;;;;;;;14.90;7.37;;;23.50;99.90;;;;;;5037088;28;20735;-84
2023/10/08 11:56:49;;;;;;;15.50;9.03;;;23.80;99.90;;;;;;5019610;28;20420;-84
2023/10/08 11:59:14;;;;;;;17.50;8.03;;;24.00;99.90;;;;;;5032018;28;20421;-84
2023/10/08 12:01:42;;;;;;;17.83;8.57;;;24.60;99.90;;;;;;4999311;28;20213;-85
2023/10/08 12:04:16;;;;;;;12.10;7.57;;;24.20;99.90;;;;;;5015220;28;20418;-84
2023/10/08 12:06:51;;;;;;;18.73;7.80;;;24.50;99.90;;;;;;5016867;28;20170;-84
2023/10/08 12:09:21;;;;;;;16.23;8.93;;;24.70;99.90;;;;;;5015626;28;20444;-84
2023/10/08 12:11:51;;;;;;;19.27;8.47;;;24.20;99.90;;;;;;5015542;28;20452;-84
2023/10/08 12:14:16;;;;;;;20.03;7.80;;;24.30;99.90;;;;;;5017608;28;20421;-84
2023/10/08 12:16:43;;;;;;;21.20;8.10;;;24.50;99.90;;;;;;5018221;28;20414;-84
2023/10/08 12:19:17;;;;;;;21.00;8.00;;;24.30;99.90;;;;;;5016633;28;20210;-84
2023/10/08 12:21:47;;;;;;;17.43;7.80;;;24.10;99.90;;;;;;5017721;28;20449;-83
2023/10/08 12:24:13;;;;;;;16.87;8.77;;;23.40;99.90;;;;;;5017783;28;20830;-83
2023/10/08 12:26:46;;;;;;;19.60;8.40;;;23.00;99.90;;;;;;5029263;28;20801;-83
2023/10/08 12:29:14;;;;;;;17.83;8.53;;;22.70;99.90;;;;;;5020895;28;20406;-84
2023/10/08 12:31:40;;;;;;;16.97;8.37;;;22.90;99.90;;;;;;5017779;28;20853;-83
2023/10/08 12:34:05;;;;;;;17.00;8.23;;;22.60;99.90;;;;;;5015721;28;20429;-83
2023/10/08 12:36:36;;;;;;;21.23;8.10;;;22.60;99.90;;;;;;5032102;28;20794;-83
2023/10/08 12:39:08;;;;;;;15.73;7.70;;;22.30;99.90;;;;;;5037594;28;20181;-83
2023/10/08 12:41:38;;;;;;;24.40;8.30;;;22.60;99.90;;;;;;5020759;28;20503;-83
2023/10/08 12:44:07;;;;;;;18.13;8.10;;;22.30;99.90;;;;;;5036774;28;20460;-83
2023/10/08 12:46:33;;;;;;;17.40;8.90;;;22.50;99.90;;;;;;5036646;28;20559;-83
2023/10/08 12:49:01;;;;;;;16.47;8.37;;;22.50;99.90;;;;;;5036707;28;20388;-83
2023/10/08 12:51:31;;;;;;;18.30;9.07;;;22.40;99.90;;;;;;5018991;28;20440;-83
2023/10/08 12:54:03;;;;;;;17.83;8.10;;;22.00;99.90;;;;;;5035430;28;20387;-83
2023/10/08 12:56:38;;;;;;;15.10;9.03;;;21.70;99.90;;;;;;5019463;28;20421;-83
2023/10/08 12:59:07;;;;;;;14.90;8.03;;;21.60;99.90;;;;;;5035634;28;20483;-83
2023/10/08 13:01:40;;;;;;;17.70;8.40;;;21.80;99.90;;;;;;5035469;28;20517;-84
2023/10/08 13:04:15;;;;;;;17.80;8.80;;;22.30;99.90;;;;;;5036148;28;20399;-83
2023/10/08 13:06:45;;;;;;;17.30;9.43;;;22.60;99.90;;;;;;5036532;28;20378;-83
2023/10/08 13:09:12;;;;;;;19.00;9.23;;;22.90;99.90;;;;;;5037125;28;20413;-83
2023/10/08 13:11:39;;;;;;;20.57;8.87;;;22.30;99.90;;;;;;5037352;28;20504;-83
2023/10/08 13:14:05;;;;;;;14.83;7.97;;;22.20;99.90;;;;;;5019025;28;20588;-83
2023/10/08 13:16:31;;;;;;;16.60;8.70;;;22.40;99.90;;;;;;5036655;28;20410;-83
2023/10/08 13:18:58;;;;;;;15.23;7.13;;;22.60;99.90;;;;;;5035602;28;20425;-84
2023/10/08 13:21:28;;;;;;;13.50;8.40;;;22.90;99.90;;;;;;5036372;28;20452;-84
2023/10/08 13:23:57;;;;;;;20.67;8.30;;;23.60;99.90;;;;;;5035828;28;20424;-83
2023/10/08 13:26:24;;;;;;;20.17;8.47;;;23.80;99.90;;;;;;5036088;28;20421;-83
2023/10/08 13:28:50;;;;;;;16.70;7.67;;;23.50;99.90;;;;;;5035535;28;20809;-83
2023/10/08 13:31:18;;;;;;;15.40;8.17;;;23.50;99.90;;;;;;5034796;28;20421;-84
2023/10/08 13:33:48;;;;;;;17.30;8.60;;;23.40;99.90;;;;;;5035752;28;20413;-83
2023/10/08 13:36:15;;;;;;;14.80;8.07;;;23.10;99.90;;;;;;5035269;28;20391;-83
2023/10/08 13:38:41;;;;;;;16.17;9.03;;;23.20;99.90;;;;;;5033856;28;20409;-83
2023/10/08 13:41:18;;;;;;;13.77;7.50;;;23.20;99.90;;;;;;5015364;28;20465;-83
2023/10/08 13:44:01;;;;;;;13.80;7.90;;;23.40;99.90;;;;;;5016021;28;20412;-84
2023/10/08 13:46:27;;;;;;;21.47;8.57;;;23.30;99.90;;;;;;5015237;28;20462;-83
2023/10/08 13:48:53;;;;;;;14.67;8.87;;;23.10;99.90;;;;;;5011527;28;20484;-83
2023/10/08 13:51:20;;;;;;;16.43;8.13;;;22.90;99.90;;;;;;5031351;28;20182;-83
2023/10/08 13:53:53;;;;;;;16.67;7.73;;;22.70;99.90;;;;;;5014964;28;20185;-84
2023/10/08 13:56:24;;;;;;;18.53;8.20;;;22.90;99.90;;;;;;5016459;28;20442;-83
2023/10/08 13:58:51;;;;;;;15.50;8.23;;;22.80;99.90;;;;;;5017059;28;20452;-83
2023/10/08 14:01:20;;;;;;;18.60;8.37;;;22.90;99.90;;;;;;5015389;28;20480;-83
2023/10/08 14:03:53;;;;;;;17.03;8.57;;;22.90;99.90;;;;;;5016168;28;20428;-83
2023/10/08 14:06:20;;;;;;;13.37;8.17;;;23.10;99.90;;;;;;5015829;28;20771;-83
2023/10/08 14:08:51;;;;;;;13.80;8.20;;;23.30;99.90;;;;;;5014591;28;20802;-83
2023/10/08 14:11:18;;;;;;;16.00;8.70;;;23.20;99.90;;;;;;5022064;28;20384;-83
2023/10/08 14:13:44;;;;;;;16.50;8.40;;;22.90;99.90;;;;;;5035937;28;20417;-83